JP Observations

RJAA 241530Z 01007KT CAVOK 03/M03 Q1023 NOSIG RMK A3023 RJBB 241530Z AUTO 07010KT 9999 FEW042 OVC049 07/02 Q1027 NOSIG RJCC 241530Z VRB01KT 9999 FEW030 M14/M15 Q1023 RMK 1CU030 A3022 RJFF 241530Z AUTO 13003KT 8000 NSC 07/04 Q1024 RMK A3026 RJGG 241530Z 32018KT 9999 FEW030 SCT050 BKN/// 07/01 Q1026 NOSIG RJTT 241530Z 01014KT CAVOK 08/M03 Q1023 NOSIG RMK A3022 ROAH 241530Z 15007KT 9999 SCT021 BKN030 21/15 Q1019 RMK 3CU021 6CU030 A3010 RODN 241536Z AUTO 13014G19KT 10SM SCT019 BKN026 BKN032 20/16 A3011 RMK AO2 CIG 026V034 SLP203 RODN 241506Z AUTO 12011G16KT 10SM SCT021 SCT028 20/16 A3011 RMK AO2 SLP203 RJAA 241500Z 02007KT CAVOK 04/M03 Q1023 NOSIG RJAA 241500Z 02007KT CAVOK 04/M03 Q1023 NOSIG RMK A3023 RJAH 241500Z 04003KT 9999 FEW030 SCT/// 02/M05 Q1023 RJAW 241500Z 06014KT 9999 FEW010 BKN015 19/17 Q1020 RMK 2CU010 7CU015 A3014 RJBB 241500Z AUTO 06010KT 9999 FEW045 BKN048 OVC050 07/02 Q1027 NOSIG RJCC 241500Z VRB02KT 9999 FEW030 M13/M15 Q1023 RJCC 241500Z VRB02KT 9999 FEW030 M13/M15 Q1023 RMK 1CU030 A3022 RJFF 241500Z AUTO 17003KT 9999 NSC 08/04 Q1025 RJFF 241500Z AUTO 17003KT 9999 NSC 08/04 Q1025 RMK A3027 RJFR 241500Z 35004KT 9999 FEW030 SCT150 BKN/// 06/03 Q1025 RJGG 241500Z 33018KT 9999 FEW030 BKN050 07/02 Q1026 NOSIG RJNK 241500Z 09005KT 9999 -SHRA FEW010 BKN030 BKN050 02/M03 Q1029 RJOH 241500Z 06014KT 9999 FEW010 BKN020 BKN030 06/M01 Q1028 RJOI 241455Z 31006KT 9999 FEW030 BKN180 BKN210 07/02 A3029 RMK SLP258 T00670017 401390011 54000 RJTT 241500Z 35015KT CAVOK 08/M05 Q1023 NOSIG RJTT 241500Z 35015KT CAVOK 08/M05 Q1023 NOSIG RMK A3021 RJTY 241456Z AUTO 36008KT 10SM CLR 02/M04 A3025 RMK AO2 SLP252 T00221045 401421027 52008 FZRANO $ ROAH 241500Z 14007KT 9999 FEW022 SCT035 20/15 Q1019 ROAH 241500Z 14007KT 9999 FEW022 SCT035 20/15 Q1019 RMK 2CU022 3SC035 A3010 RODN 241456Z AUTO 12013KT 10SM SCT021 BKN028 20/16 A3011 RMK AO2 SLP203 T01990159 402220153 50000 ROYN 241500Z AUTO 16009KT 9999 OVC044 23/18 Q1018